Time;durP1;ratioP1;P1;durP2;ratioP2;P2;SDS_P1;SDS_P2;PMS_P1;PMS_P2;Temp;Humidity;BMP_temperature;BMP_pressure;BME280_temperature;BME280_humidity;BME280_pressure;Samples;Min_cycle;Max_cycle;Signal;HPM_P1;HPM_P2
2022/06/22 00:00:37;;;;;;;11.82;7.35;;;10.60;99.90;;;;;;5057458;28;20052;-78
2022/06/22 00:03:07;;;;;;;9.32;6.97;;;10.70;99.90;;;;;;5056228;28;20127;-79
2022/06/22 00:05:49;;;;;;;4.40;3.90;;;10.60;99.90;;;;;;5074236;28;20044;-79
2022/06/22 00:08:27;;;;;;;7.90;6.20;;;10.60;99.90;;;;;;5072533;28;20061;-78
2022/06/22 00:11:14;;;;;;;12.63;7.70;;;10.50;99.90;;;;;;5074795;28;20048;-79
2022/06/22 00:13:51;;;;;;;13.43;8.52;;;10.50;99.90;;;;;;5070963;28;20438;-78
2022/06/22 00:16:25;;;;;;;14.30;9.05;;;10.50;99.90;;;;;;5072590;28;20441;-78
2022/06/22 00:18:51;;;;;;;13.40;6.93;;;10.40;99.90;;;;;;5053734;28;20135;-79
2022/06/22 00:21:25;;;;;;;11.55;6.78;;;10.40;99.90;;;;;;5053673;28;20045;-79
2022/06/22 00:24:00;;;;;;;9.23;6.50;;;10.40;99.90;;;;;;5086609;28;20533;-79
2022/06/22 00:26:33;;;;;;;13.73;7.00;;;10.30;99.90;;;;;;5090728;28;20044;-78
2022/06/22 00:29:04;;;;;;;14.10;8.15;;;10.20;99.90;;;;;;5059206;28;20439;-78
2022/06/22 00:31:43;;;;;;;11.82;7.55;;;10.20;99.90;;;;;;5073333;28;20047;-78
2022/06/22 00:34:09;;;;;;;12.20;6.70;;;10.10;99.90;;;;;;5072393;28;20052;-79
2022/06/22 00:36:59;;;;;;;13.10;8.98;;;10.00;99.90;;;;;;5071840;28;20048;-79
2022/06/22 00:39:29;;;;;;;11.68;8.98;;;9.90;99.90;;;;;;5067932;28;20065;-78
2022/06/22 00:42:32;;;;;;;19.17;10.68;;;9.90;99.90;;;;;;5072223;28;20091;-78
2022/06/22 00:45:03;;;;;;;10.15;8.32;;;9.90;99.90;;;;;;5088947;28;20519;-79
2022/06/22 00:47:46;;;;;;;9.85;7.20;;;9.90;99.90;;;;;;5069217;28;20056;-79
2022/06/22 00:50:22;;;;;;;9.45;6.50;;;9.90;99.90;;;;;;5059418;28;20083;-78
2022/06/22 00:53:22;;;;;;;18.13;11.23;;;9.80;99.90;;;;;;5085043;28;20491;-78
2022/06/22 00:56:14;;;;;;;13.13;8.30;;;9.80;99.90;;;;;;5037263;28;20563;-79
2022/06/22 00:59:11;;;;;;;11.60;9.00;;;9.80;99.90;;;;;;5043669;28;20555;-78
2022/06/22 01:01:47;;;;;;;11.90;9.55;;;9.70;99.90;;;;;;5070273;28;20052;-78
2022/06/22 01:04:24;;;;;;;10.30;8.93;;;9.70;99.90;;;;;;5073998;28;20076;-78
2022/06/22 01:07:00;;;;;;;11.80;8.85;;;9.70;99.90;;;;;;5072668;28;20416;-78
2022/06/22 01:09:45;;;;;;;9.10;6.68;;;9.70;99.90;;;;;;5072860;28;20044;-78
2022/06/22 01:12:18;;;;;;;7.00;6.28;;;9.70;99.90;;;;;;5052432;28;20052;-79
2022/06/22 01:15:02;;;;;;;9.48;7.20;;;9.60;99.90;;;;;;5053574;28;20084;-79
2022/06/22 01:17:51;;;;;;;10.52;8.50;;;9.60;99.90;;;;;;5045494;28;20044;-78
2022/06/22 01:20:44;;;;;;;14.15;10.23;;;9.60;99.90;;;;;;5082663;28;20040;-78
2022/06/22 01:23:23;;;;;;;9.25;7.28;;;9.60;99.90;;;;;;5051411;28;20095;-78
2022/06/22 01:26:03;;;;;;;6.50;5.85;;;9.50;99.90;;;;;;5061362;28;20400;-79
2022/06/22 01:28:29;;;;;;;19.17;7.55;;;9.50;99.90;;;;;;5072312;28;20044;-79
2022/06/22 01:31:02;;;;;;;11.35;9.23;;;9.50;99.90;;;;;;5086721;28;20048;-79
2022/06/22 01:33:39;;;;;;;19.80;10.43;;;9.50;99.90;;;;;;5072094;28;20547;-79
2022/06/22 01:36:14;;;;;;;13.60;9.57;;;9.40;99.90;;;;;;5071164;28;20044;-79
2022/06/22 01:38:40;;;;;;;10.10;9.10;;;9.40;99.90;;;;;;5072840;28;20049;-78
2022/06/22 01:41:37;;;;;;;9.70;8.73;;;9.30;99.90;;;;;;5072167;28;20503;-79
2022/06/22 01:44:24;;;;;;;10.65;9.38;;;9.30;99.90;;;;;;5054532;28;20478;-78
2022/06/22 01:47:12;;;;;;;35.05;9.30;;;9.30;99.90;;;;;;5064662;28;20535;-79
2022/06/22 01:49:48;;;;;;;38.25;9.93;;;9.30;99.90;;;;;;5074596;28;20048;-78
2022/06/22 01:52:26;;;;;;;11.88;10.23;;;9.30;99.90;;;;;;5073686;28;20041;-79
2022/06/22 01:54:57;;;;;;;12.20;11.00;;;9.20;99.90;;;;;;5059258;28;20094;-78
2022/06/22 01:57:44;;;;;;;9.48;8.57;;;9.30;99.90;;;;;;5056120;28;20504;-78
2022/06/22 02:00:11;;;;;;;7.57;6.88;;;9.30;99.90;;;;;;5072600;28;20118;-78
2022/06/22 02:02:46;;;;;;;26.52;6.80;;;9.30;99.90;;;;;;5077197;28;20047;-79
2022/06/22 02:05:32;;;;;;;;;;;9.30;99.90;;;;;;5074472;28;20052;-78
2022/06/22 02:08:09;;;;;;;10.30;8.45;;;9.30;99.90;;;;;;5093888;28;20355;-78
2022/06/22 02:10:50;;;;;;;16.05;10.15;;;9.20;99.90;;;;;;5076872;28;20052;-79
2022/06/22 02:13:37;;;;;;;12.15;10.40;;;9.20;99.90;;;;;;5057614;28;20089;-79
2022/06/22 02:16:09;;;;;;;12.90;11.15;;;9.10;99.90;;;;;;5074747;28;20127;-78
2022/06/22 02:18:51;;;;;;;17.35;12.77;;;9.10;99.90;;;;;;5063356;28;20128;-78
2022/06/22 02:21:33;;;;;;;12.27;9.90;;;9.10;99.90;;;;;;5065028;28;20128;-79
2022/06/22 02:24:06;;;;;;;13.45;10.50;;;9.00;99.90;;;;;;5069772;28;20036;-79
2022/06/22 02:26:42;;;;;;;16.50;10.23;;;9.00;99.90;;;;;;5096018;28;20074;-79
2022/06/22 02:29:10;;;;;;;13.35;11.05;;;8.90;99.90;;;;;;5076939;28;20590;-79
2022/06/22 02:31:36;;;;;;;14.75;11.18;;;8.90;99.90;;;;;;5076604;28;20053;-79
2022/06/22 02:34:02;;;;;;;12.70;10.95;;;8.90;99.90;;;;;;5073393;28;20048;-79
2022/06/22 02:36:31;;;;;;;11.38;10.13;;;8.90;99.90;;;;;;5076681;28;20036;-79
2022/06/22 02:39:01;;;;;;;12.68;10.48;;;8.90;99.90;;;;;;5075454;28;20045;-79
2022/06/22 02:44:29;;;;;;;17.00;10.10;;;8.90;99.90;;;;;;5062314;28;20049;-79
2022/06/22 02:47:00;;;;;;;14.35;11.52;;;8.80;99.90;;;;;;5069694;28;20048;-79
2022/06/22 02:49:33;;;;;;;14.55;12.07;;;8.80;99.90;;;;;;5074297;28;20053;-79
2022/06/22 02:52:02;;;;;;;12.50;10.93;;;8.80;99.90;;;;;;5075283;28;20488;-79
2022/06/22 02:54:42;;;;;;;14.80;11.07;;;8.80;99.90;;;;;;5074145;28;20117;-79
2022/06/22 02:57:11;;;;;;;12.43;11.02;;;8.70;99.90;;;;;;5060136;28;20440;-79
2022/06/22 02:59:38;;;;;;;14.50;11.15;;;8.70;99.90;;;;;;5054912;28;20060;-79
2022/06/22 03:02:04;;;;;;;12.57;10.45;;;8.80;99.90;;;;;;5071745;28;20093;-79
2022/06/22 03:04:31;;;;;;;13.00;11.70;;;8.70;99.90;;;;;;5076176;28;20087;-79
2022/06/22 03:06:57;;;;;;;14.07;10.90;;;8.70;99.90;;;;;;5080705;28;20036;-79
2022/06/22 03:09:27;;;;;;;14.13;10.43;;;8.70;99.90;;;;;;5073801;28;20047;-79
2022/06/22 03:11:56;;;;;;;11.18;10.00;;;8.70;99.90;;;;;;5067672;28;20037;-79
2022/06/22 03:14:36;;;;;;;20.55;11.50;;;8.70;99.90;;;;;;5064698;28;20137;-79
2022/06/22 03:17:04;;;;;;;13.10;10.60;;;8.70;99.90;;;;;;5073939;28;20067;-78
2022/06/22 03:20:01;;;;;;;14.68;10.40;;;8.70;99.90;;;;;;5073473;28;20072;-79
2022/06/22 03:22:35;;;;;;;13.30;10.68;;;8.60;99.90;;;;;;5057078;28;20044;-79
2022/06/22 03:25:24;;;;;;;16.17;10.45;;;8.60;99.90;;;;;;5056620;28;20045;-79
2022/06/22 03:27:59;;;;;;;12.95;10.88;;;8.60;99.90;;;;;;5074418;28;20048;-78
2022/06/22 03:30:33;;;;;;;12.52;10.63;;;8.50;99.90;;;;;;5088445;28;20052;-79
2022/06/22 03:33:13;;;;;;;12.50;11.20;;;8.50;99.90;;;;;;5096213;28;20384;-79
2022/06/22 03:36:17;;;;;;;12.90;9.95;;;8.50;99.90;;;;;;5075971;28;20045;-79
2022/06/22 03:38:49;;;;;;;16.38;10.10;;;8.50;99.90;;;;;;5071966;28;20548;-79
2022/06/22 03:41:18;;;;;;;18.25;12.07;;;8.50;99.90;;;;;;5054232;28;20047;-79
2022/06/22 03:44:07;;;;;;;16.95;12.15;;;8.50;99.90;;;;;;5076668;28;20048;-78
2022/06/22 03:46:52;;;;;;;14.63;11.60;;;8.50;99.90;;;;;;5092770;28;20047;-79
2022/06/22 03:49:31;;;;;;;16.85;12.27;;;8.50;99.90;;;;;;5074065;28;20055;-79
2022/06/22 03:52:10;;;;;;;14.15;11.70;;;8.50;99.90;;;;;;5073376;28;20044;-79
2022/06/22 03:54:39;;;;;;;12.55;10.77;;;8.40;99.90;;;;;;5079390;28;20036;-79
2022/06/22 03:57:08;;;;;;;15.25;12.38;;;8.40;99.90;;;;;;5083990;28;20081;-79
2022/06/22 03:59:41;;;;;;;19.48;12.48;;;8.40;99.90;;;;;;5054413;28;20106;-79
2022/06/22 04:02:07;;;;;;;15.82;10.57;;;8.40;99.90;;;;;;5058943;28;20049;-79
2022/06/22 04:04:33;;;;;;;12.68;10.60;;;8.40;99.90;;;;;;5073364;28;20093;-79
2022/06/22 04:06:59;;;;;;;12.85;10.82;;;8.40;99.90;;;;;;5072704;28;20109;-79
2022/06/22 04:09:27;;;;;;;13.80;10.90;;;8.40;99.90;;;;;;5074673;28;20036;-79
2022/06/22 04:12:09;;;;;;;14.35;10.73;;;8.50;99.90;;;;;;5071525;28;20549;-79
2022/06/22 04:14:41;;;;;;;11.30;8.80;;;8.50;99.90;;;;;;5074673;28;20087;-79
2022/06/22 04:17:18;;;;;;;12.05;9.57;;;8.50;99.90;;;;;;5072985;28;20045;-79
2022/06/22 04:19:50;;;;;;;10.90;9.52;;;8.60;99.90;;;;;;5072503;28;20598;-79
2022/06/22 04:22:23;;;;;;;12.57;9.70;;;8.60;99.90;;;;;;5076182;28;20044;-79
2022/06/22 04:24:57;;;;;;;11.20;8.98;;;8.60;99.90;;;;;;5074572;28;20044;-79
2022/06/22 04:27:32;;;;;;;11.00;9.90;;;8.70;99.90;;;;;;5071667;28;20469;-79
2022/06/22 04:30:09;;;;;;;11.80;8.65;;;8.70;99.90;;;;;;5074471;28;20051;-79
2022/06/22 04:32:42;;;;;;;10.70;7.72;;;8.80;99.90;;;;;;5070315;28;20056;-79
2022/06/22 04:35:26;;;;;;;7.72;6.93;;;8.90;99.90;;;;;;5072177;28;20045;-79
2022/06/22 04:38:10;;;;;;;11.63;8.00;;;8.90;99.90;;;;;;5074104;28;20052;-79
2022/06/22 04:40:46;;;;;;;12.03;8.83;;;8.90;99.90;;;;;;5056129;28;20485;-80
2022/06/22 04:43:12;;;;;;;18.67;10.35;;;9.10;99.90;;;;;;5054273;28;20337;-80
2022/06/22 04:45:41;;;;;;;13.18;9.60;;;9.10;99.90;;;;;;5069717;28;20458;-80
2022/06/22 04:48:19;;;;;;;13.85;8.85;;;9.30;99.90;;;;;;5093538;28;20047;-80
2022/06/22 04:50:47;;;;;;;11.70;9.85;;;9.40;99.90;;;;;;5075065;28;20056;-80
2022/06/22 04:53:27;;;;;;;14.07;9.90;;;9.50;99.90;;;;;;5072945;28;20048;-80
2022/06/22 04:55:55;;;;;;;9.48;8.48;;;9.70;99.90;;;;;;5056479;28;20498;-80
2022/06/22 04:58:54;;;;;;;14.85;9.50;;;9.90;99.90;;;;;;5053860;28;20037;-80
2022/06/22 05:01:23;;;;;;;14.75;9.57;;;10.00;99.90;;;;;;5042673;28;20091;-80
2022/06/22 05:03:51;;;;;;;12.30;9.30;;;10.20;99.90;;;;;;5072863;28;20048;-80
2022/06/22 05:06:30;;;;;;;10.40;9.38;;;10.30;99.90;;;;;;5072892;28;20101;-80
2022/06/22 05:09:05;;;;;;;10.13;8.63;;;10.50;99.90;;;;;;5072013;28;20122;-80
2022/06/22 05:11:52;;;;;;;10.00;8.98;;;10.60;99.90;;;;;;5071859;28;20483;-80
2022/06/22 05:14:25;;;;;;;13.15;9.43;;;10.80;99.90;;;;;;5072449;28;20040;-80
2022/06/22 05:16:57;;;;;;;12.35;9.07;;;10.90;99.90;;;;;;5086182;28;20052;-80
2022/06/22 05:19:31;;;;;;;10.02;9.07;;;11.10;99.90;;;;;;5107120;28;20094;-79
2022/06/22 05:21:58;;;;;;;11.68;8.65;;;11.20;99.90;;;;;;5087374;28;20434;-80
2022/06/22 05:24:28;;;;;;;9.68;8.68;;;11.40;99.90;;;;;;5071855;28;20052;-82
2022/06/22 05:26:58;;;;;;;9.90;8.80;;;11.50;99.90;;;;;;5070898;28;20041;-80
2022/06/22 05:29:57;;;;;;;13.15;9.23;;;11.70;99.90;;;;;;5070405;28;20492;-80
2022/06/22 05:32:35;;;;;;;10.82;9.05;;;11.80;99.90;;;;;;5070675;28;20113;-80
2022/06/22 05:35:12;;;;;;;12.40;9.20;;;12.00;99.90;;;;;;5087065;28;20544;-80
2022/06/22 05:37:43;;;;;;;14.40;8.55;;;12.10;99.90;;;;;;5087560;28;20170;-80
2022/06/22 05:40:11;;;;;;;12.73;8.98;;;12.30;99.90;;;;;;5066732;28;20040;-80
2022/06/22 05:42:37;;;;;;;22.38;8.73;;;12.50;99.90;;;;;;5088971;28;20406;-80
2022/06/22 05:45:11;;;;;;;12.23;9.65;;;12.60;99.90;;;;;;5071151;28;20044;-80
2022/06/22 05:47:37;;;;;;;15.27;8.70;;;12.80;99.90;;;;;;5072485;28;20056;-80
2022/06/22 05:50:19;;;;;;;15.45;8.60;;;12.90;99.90;;;;;;5070568;28;20072;-77
2022/06/22 05:52:51;;;;;;;14.05;10.23;;;13.10;99.90;;;;;;5070938;28;20049;-77
2022/06/22 05:55:28;;;;;;;16.85;9.70;;;13.30;99.90;;;;;;5081498;28;20122;-78
2022/06/22 05:58:19;;;;;;;16.40;9.85;;;13.50;99.90;;;;;;5050250;28;20049;-78
2022/06/22 06:00:49;;;;;;;13.73;9.50;;;13.70;99.90;;;;;;5068653;28;20480;-79
2022/06/22 06:03:58;;;;;;;14.60;10.80;;;13.80;99.90;;;;;;5069624;28;20040;-79
2022/06/22 06:06:33;;;;;;;16.73;11.30;;;14.00;99.90;;;;;;5076318;28;20094;-78
2022/06/22 06:09:06;;;;;;;15.50;9.52;;;14.20;99.90;;;;;;5055480;28;20124;-78
2022/06/22 06:11:47;;;;;;;12.15;9.20;;;14.30;99.90;;;;;;5071272;28;20052;-78
2022/06/22 06:14:34;;;;;;;13.55;8.90;;;14.50;99.90;;;;;;5071793;28;20055;-78
2022/06/22 06:17:37;;;;;;;13.52;8.88;;;14.70;99.90;;;;;;5072176;28;20087;-77
2022/06/22 06:20:06;;;;;;;14.55;8.80;;;14.80;99.90;;;;;;5069914;28;20056;-79
2022/06/22 06:22:36;;;;;;;12.82;8.32;;;15.00;99.90;;;;;;5047206;28;20036;-78
2022/06/22 06:28:02;;;;;;;16.85;8.45;;;15.30;99.90;;;;;;5089940;28;20044;-79
2022/06/22 06:30:45;;;;;;;11.98;7.63;;;15.50;99.90;;;;;;5070645;28;20048;-78
2022/06/22 06:33:25;;;;;;;11.40;7.55;;;15.60;99.90;;;;;;5072296;28;20429;-78
2022/06/22 06:35:56;;;;;;;9.23;6.20;;;15.80;99.90;;;;;;5075901;28;20040;-78
2022/06/22 06:38:34;;;;;;;16.50;7.97;;;15.90;99.90;;;;;;5091944;28;20076;-78
2022/06/22 06:41:18;;;;;;;14.13;6.88;;;16.00;99.90;;;;;;5078168;28;20055;-77
2022/06/22 06:43:49;;;;;;;12.02;6.80;;;16.10;99.90;;;;;;5075244;28;20067;-78
2022/06/22 06:46:46;;;;;;;11.80;6.03;;;16.20;99.90;;;;;;5072910;28;20052;-78
2022/06/22 06:49:28;;;;;;;13.07;6.07;;;16.40;99.90;;;;;;5065971;28;20052;-78
2022/06/22 06:52:03;;;;;;;9.27;5.13;;;16.50;99.90;;;;;;5090425;28;20041;-77
2022/06/22 06:54:40;;;;;;;10.02;6.03;;;16.70;99.90;;;;;;5068409;28;20052;-77
2022/06/22 06:57:14;;;;;;;14.38;5.97;;;16.70;99.90;;;;;;5064641;28;20510;-79
2022/06/22 06:59:43;;;;;;;12.88;6.25;;;16.90;99.90;;;;;;5079223;28;20049;-78
2022/06/22 07:02:32;;;;;;;11.80;5.75;;;16.90;99.90;;;;;;5074273;28;20404;-78
2022/06/22 07:05:00;;;;;;;10.63;5.10;;;17.00;99.90;;;;;;5074268;28;20047;-78
2022/06/22 07:07:37;;;;;;;12.73;7.18;;;17.10;99.90;;;;;;5073671;28;20055;-77
2022/06/22 07:10:33;;;;;;;10.60;6.30;;;17.10;99.90;;;;;;5055780;28;20041;-77
2022/06/22 07:13:02;;;;;;;10.98;6.53;;;17.20;99.90;;;;;;5057855;28;20048;-77
2022/06/22 07:15:36;;;;;;;12.05;6.28;;;17.20;99.90;;;;;;5075965;28;20052;-77
2022/06/22 07:18:31;;;;;;;14.18;7.22;;;17.30;99.90;;;;;;5074964;28;20041;-78
2022/06/22 07:21:04;;;;;;;;;;;17.30;99.90;;;;;;5072480;28;20052;-79
2022/06/22 07:23:43;;;;;;;11.65;7.25;;;17.40;99.90;;;;;;5059037;28;19931;-78
2022/06/22 07:26:38;;;;;;;10.73;6.18;;;17.50;99.90;;;;;;5054452;28;20083;-77
2022/06/22 07:29:37;;;;;;;11.82;5.85;;;17.50;99.90;;;;;;5072098;28;20055;-78
2022/06/22 07:32:11;;;;;;;10.55;5.75;;;17.60;99.90;;;;;;5082773;28;20071;-78
2022/06/22 07:34:48;;;;;;;12.63;5.35;;;17.60;99.90;;;;;;5075503;28;20058;-79
2022/06/22 07:37:24;;;;;;;11.25;4.85;;;17.70;99.90;;;;;;5072142;28;20492;-77
2022/06/22 07:39:57;;;;;;;8.98;4.95;;;17.80;99.90;;;;;;5074104;28;20040;-77
2022/06/22 07:42:24;;;;;;;9.23;5.10;;;17.80;99.90;;;;;;5077005;28;20492;-77
2022/06/22 07:44:50;;;;;;;13.32;5.80;;;17.90;99.90;;;;;;5072017;28;20040;-77
2022/06/22 07:47:33;;;;;;;6.07;4.00;;;17.90;99.90;;;;;;5075173;28;20435;-77
2022/06/22 07:50:18;;;;;;;9.35;4.68;;;17.90;99.90;;;;;;5073216;28;20462;-77
2022/06/22 07:52:54;;;;;;;8.35;4.20;;;18.00;99.90;;;;;;5072856;28;20040;-77
2022/06/22 07:55:45;;;;;;;9.90;4.57;;;18.10;99.90;;;;;;5079126;28;20045;-78
2022/06/22 07:58:27;;;;;;;11.80;4.68;;;18.20;99.90;;;;;;5053046;28;20045;-78
2022/06/22 08:01:02;;;;;;;8.57;4.43;;;18.30;99.90;;;;;;5070468;28;20049;-79
2022/06/22 08:03:46;;;;;;;11.20;4.68;;;18.40;99.90;;;;;;5073901;28;20127;-77
2022/06/22 08:06:29;;;;;;;12.82;4.55;;;18.40;99.90;;;;;;5073834;28;20130;-80
2022/06/22 08:08:59;;;;;;;6.53;3.58;;;18.40;99.90;;;;;;5073325;28;20048;-77
2022/06/22 08:11:32;;;;;;;9.50;5.28;;;18.40;99.90;;;;;;5069678;28;20044;-79
2022/06/22 08:14:12;;;;;;;9.02;3.42;;;18.50;99.90;;;;;;5053697;28;20043;-77
2022/06/22 08:16:48;;;;;;;10.60;3.63;;;18.60;99.90;;;;;;5104449;28;20045;-78
2022/06/22 08:19:15;;;;;;;11.77;4.18;;;18.60;99.90;;;;;;5056713;28;20443;-77
2022/06/22 08:21:44;;;;;;;13.65;5.03;;;18.70;99.90;;;;;;5053230;28;20055;-78
2022/06/22 08:24:15;;;;;;;8.75;4.72;;;18.80;99.90;;;;;;5055114;28;20049;-78
2022/06/22 08:26:41;;;;;;;9.73;4.57;;;18.90;99.90;;;;;;5052297;28;20041;-77
2022/06/22 08:29:08;;;;;;;12.55;4.45;;;18.80;99.90;;;;;;5061641;28;20514;-79
2022/06/22 08:31:51;;;;;;;8.90;3.70;;;18.80;99.90;;;;;;5073754;28;20434;-78
2022/06/22 08:34:26;;;;;;;12.20;3.95;;;18.80;99.90;;;;;;5065494;28;20452;-79
2022/06/22 08:37:05;;;;;;;10.88;4.00;;;18.80;99.90;;;;;;5073211;28;20049;-78
2022/06/22 08:39:44;;;;;;;10.35;3.28;;;18.80;99.90;;;;;;5071478;28;20051;-78
2022/06/22 08:42:36;;;;;;;8.23;3.40;;;18.90;99.90;;;;;;5072032;28;20422;-78
2022/06/22 08:45:26;;;;;;;7.78;3.78;;;18.90;99.90;;;;;;5070596;28;20558;-78
2022/06/22 08:48:25;;;;;;;12.55;3.67;;;19.00;99.90;;;;;;5070787;28;20041;-77
2022/06/22 08:51:22;;;;;;;7.45;3.78;;;19.10;99.90;;;;;;5092551;28;20055;-78
2022/06/22 08:54:09;;;;;;;7.20;3.30;;;19.10;99.90;;;;;;5051891;28;20055;-78
2022/06/22 08:57:15;;;;;;;6.00;2.92;;;19.10;99.90;;;;;;5071851;28;20400;-77
2022/06/22 08:59:54;;;;;;;7.53;4.00;;;19.10;99.90;;;;;;5079039;28;20044;-78
2022/06/22 09:02:30;;;;;;;8.30;3.00;;;19.10;99.90;;;;;;5071086;28;20080;-77
2022/06/22 09:05:17;;;;;;;6.85;3.42;;;19.10;99.90;;;;;;5065890;28;20042;-78
2022/06/22 09:08:01;;;;;;;6.28;2.97;;;19.10;99.90;;;;;;5081715;28;20126;-76
2022/06/22 09:10:58;;;;;;;8.70;2.87;;;19.10;99.90;;;;;;5092707;28;20055;-77
2022/06/22 09:13:24;;;;;;;10.57;4.50;;;19.10;99.90;;;;;;5073590;28;20464;-77
2022/06/22 09:16:28;;;;;;;6.30;2.65;;;19.10;99.90;;;;;;5071337;28;20088;-77
2022/06/22 09:19:04;;;;;;;5.35;2.90;;;19.10;99.90;;;;;;5042332;28;20036;-80
2022/06/22 09:21:39;;;;;;;7.10;2.92;;;19.20;99.90;;;;;;5106350;28;20048;-76
2022/06/22 09:24:32;;;;;;;6.88;2.55;;;19.20;99.90;;;;;;5069441;28;20380;-77
2022/06/22 09:27:13;;;;;;;9.95;3.58;;;19.30;99.90;;;;;;5053703;28;20497;-77
2022/06/22 09:30:02;;;;;;;7.43;2.97;;;19.40;99.90;;;;;;5052403;28;20048;-76
2022/06/22 09:33:05;;;;;;;7.72;2.95;;;19.40;99.90;;;;;;5065735;28;20510;-77
2022/06/22 09:35:44;;;;;;;4.72;2.35;;;19.40;99.90;;;;;;5062308;28;20056;-77
2022/06/22 09:38:48;;;;;;;5.05;2.47;;;19.40;99.90;;;;;;5068836;28;20266;-78
2022/06/22 09:41:28;;;;;;;7.85;2.70;;;19.50;99.90;;;;;;5057686;28;20044;-78
2022/06/22 09:44:15;;;;;;;9.50;3.15;;;19.60;99.90;;;;;;5047814;28;20572;-77
2022/06/22 09:47:26;;;;;;;9.82;4.00;;;19.70;99.90;;;;;;5068666;28;20051;-77
2022/06/22 09:50:28;;;;;;;9.90;3.75;;;19.80;99.90;;;;;;5069839;28;20045;-78
2022/06/22 09:53:03;;;;;;;8.20;2.60;;;19.80;99.90;;;;;;5051950;28;20052;-79
2022/06/22 09:58:46;;;;;;;7.07;3.15;;;19.90;99.90;;;;;;5053098;28;20051;-78
2022/06/22 10:01:27;;;;;;;7.65;3.38;;;20.00;99.90;;;;;;5051680;28;20053;-78
2022/06/22 10:03:59;;;;;;;5.18;2.80;;;20.10;99.90;;;;;;5071839;28;20080;-77
2022/06/22 10:06:40;;;;;;;7.63;3.40;;;20.10;99.90;;;;;;5075950;28;20495;-78
2022/06/22 10:09:33;;;;;;;9.52;3.75;;;20.20;99.90;;;;;;5091693;28;20130;-78
2022/06/22 10:12:09;;;;;;;9.02;3.75;;;20.30;99.90;;;;;;5067499;28;20049;-78
2022/06/22 10:14:46;;;;;;;8.90;3.60;;;20.20;99.90;;;;;;5071838;28;20096;-80
2022/06/22 10:17:15;;;;;;;8.57;3.17;;;20.20;99.90;;;;;;5074606;28;20059;-78
2022/06/22 10:20:14;;;;;;;9.52;3.58;;;20.20;99.90;;;;;;5076984;28;20040;-76
2022/06/22 10:22:56;;;;;;;9.88;2.30;;;20.30;99.90;;;;;;5075795;28;20445;-77
2022/06/22 10:25:30;;;;;;;7.38;3.00;;;20.40;99.90;;;;;;5075133;28;20056;-78
2022/06/22 10:28:18;;;;;;;;;;;20.50;99.90;;;;;;5075956;28;20044;-77
2022/06/22 10:31:03;;;;;;;8.30;3.00;;;20.40;99.90;;;;;;5075285;28;19967;-77
2022/06/22 10:33:48;;;;;;;6.28;2.83;;;20.50;99.90;;;;;;5092985;28;20119;-77
2022/06/22 10:36:28;;;;;;;;;;;20.50;99.90;;;;;;5097491;28;20036;-77
2022/06/22 10:39:21;;;;;;;8.45;3.50;;;20.60;99.90;;;;;;5095030;28;19971;-77
2022/06/22 10:45:10;;;;;;;8.30;3.72;;;20.70;99.90;;;;;;5095670;28;20055;-78
2022/06/22 10:48:12;;;;;;;11.05;4.10;;;20.80;99.90;;;;;;5077691;28;20059;-78
2022/06/22 10:51:08;;;;;;;9.32;4.07;;;20.90;99.90;;;;;;5078550;28;20105;-79
2022/06/22 10:54:11;;;;;;;15.07;4.50;;;20.90;99.90;;;;;;5094479;28;20048;-77
2022/06/22 10:56:54;;;;;;;9.05;3.38;;;21.00;99.90;;;;;;5079265;28;20041;-78
2022/06/22 10:59:23;;;;;;;8.10;4.25;;;21.00;99.90;;;;;;5075024;28;20049;-79
2022/06/22 11:02:20;;;;;;;6.47;3.03;;;21.10;99.90;;;;;;5074728;28;20040;-79
2022/06/22 11:05:01;;;;;;;9.52;3.35;;;21.20;99.90;;;;;;5058542;28;20496;-78
2022/06/22 11:07:45;;;;;;;5.95;3.22;;;21.20;99.90;;;;;;5057431;28;20044;-79
2022/06/22 11:10:26;;;;;;;;;;;21.20;99.90;;;;;;5076333;28;20480;-79
2022/06/22 11:13:12;;;;;;;5.10;2.88;;;21.10;99.90;;;;;;5076165;28;19920;-77
2022/06/22 11:16:03;;;;;;;6.63;2.85;;;21.20;99.90;;;;;;5055988;28;20044;-77
2022/06/22 11:18:31;;;;;;;6.30;2.70;;;21.30;99.90;;;;;;5074583;28;20048;-77
2022/06/22 11:21:24;;;;;;;4.60;2.60;;;21.30;99.90;;;;;;5081355;28;20032;-77
2022/06/22 11:24:11;;;;;;;8.25;2.72;;;21.30;99.90;;;;;;5096154;28;20044;-77
2022/06/22 11:30:48;;;;;;;6.03;2.88;;;21.30;99.90;;;;;;5093822;28;20080;-78
2022/06/22 11:33:23;;;;;;;4.50;2.80;;;21.30;99.90;;;;;;5093897;28;20065;-77
2022/06/22 11:36:18;;;;;;;9.98;3.25;;;21.40;99.90;;;;;;5076788;28;20391;-77
2022/06/22 11:39:11;;;;;;;5.17;3.10;;;21.40;99.90;;;;;;5095980;28;20129;-77
2022/06/22 11:41:43;;;;;;;10.35;3.42;;;21.30;99.90;;;;;;5093500;28;20906;-78
2022/06/22 11:44:16;;;;;;;6.88;3.03;;;21.30;99.90;;;;;;5111377;28;20048;-78
2022/06/22 11:46:49;;;;;;;7.72;3.35;;;21.30;99.90;;;;;;5083994;28;20049;-76
2022/06/22 11:49:47;;;;;;;6.10;3.03;;;21.20;99.40;;;;;;5074574;28;20036;-79
2022/06/22 11:52:31;;;;;;;7.88;3.05;;;21.10;97.90;;;;;;5073999;28;20048;-77
2022/06/22 11:55:12;;;;;;;5.22;2.80;;;21.00;99.30;;;;;;5075376;28;20040;-78
2022/06/22 11:57:38;;;;;;;11.10;3.35;;;21.10;99.90;;;;;;5073014;28;20102;-77
2022/06/22 12:00:16;;;;;;;8.10;3.03;;;21.20;99.90;;;;;;5073796;28;20052;-77
2022/06/22 12:03:00;;;;;;;4.90;2.75;;;21.30;99.90;;;;;;5074500;28;20084;-77
2022/06/22 12:06:01;;;;;;;5.13;2.80;;;21.40;99.60;;;;;;5073934;28;20037;-78
2022/06/22 12:08:59;;;;;;;10.57;3.00;;;21.60;99.90;;;;;;5052326;28;20506;-77
2022/06/22 12:11:36;;;;;;;9.80;4.60;;;21.60;97.60;;;;;;5072905;28;20052;-77
2022/06/22 12:17:29;;;;;;;9.40;2.90;;;21.50;99.00;;;;;;5091062;28;20044;-79
2022/06/22 12:20:25;;;;;;;7.95;2.65;;;21.50;99.90;;;;;;5076836;28;20484;-78
2022/06/22 12:23:12;;;;;;;11.63;4.18;;;21.60;99.90;;;;;;5093785;28;20077;-77
2022/06/22 12:25:53;;;;;;;9.82;2.92;;;21.70;98.20;;;;;;5075953;28;20036;-79
2022/06/22 12:28:30;;;;;;;4.55;2.20;;;21.70;99.10;;;;;;5094965;28;20379;-77
2022/06/22 12:31:21;;;;;;;5.15;2.47;;;21.70;98.40;;;;;;5092552;28;20048;-78
2022/06/22 12:33:58;;;;;;;8.32;2.38;;;21.80;97.70;;;;;;5091047;28;20036;-79
2022/06/22 12:36:30;;;;;;;6.68;2.03;;;21.80;98.30;;;;;;5063654;28;20079;-79
2022/06/22 12:39:04;;;;;;;7.57;2.30;;;22.00;98.60;;;;;;5055387;28;20036;-77
2022/06/22 12:41:53;;;;;;;8.27;2.58;;;22.00;98.00;;;;;;5074349;28;20093;-78
2022/06/22 12:44:33;;;;;;;7.93;2.30;;;22.10;98.10;;;;;;5063532;28;20408;-78
2022/06/22 12:47:20;;;;;;;5.55;2.08;;;22.20;96.50;;;;;;5072074;28;20055;-78
2022/06/22 12:49:49;;;;;;;5.47;2.45;;;22.30;94.40;;;;;;5075118;28;20068;-77
2022/06/22 12:52:38;;;;;;;9.18;2.50;;;22.30;93.90;;;;;;5053413;28;20064;-79
2022/06/22 12:55:16;;;;;;;5.55;2.25;;;22.30;93.50;;;;;;5052381;28;20049;-77
2022/06/22 12:57:51;;;;;;;6.40;2.60;;;22.30;93.30;;;;;;5054177;28;20099;-81
2022/06/22 13:00:22;;;;;;;8.32;2.95;;;22.30;91.80;;;;;;5053151;28;20045;-77
2022/06/22 13:02:50;;;;;;;6.43;2.58;;;22.20;95.70;;;;;;5054095;28;20049;-78
2022/06/22 13:05:23;;;;;;;8.07;3.03;;;22.20;96.10;;;;;;5053795;28;20556;-78
2022/06/22 13:07:55;;;;;;;11.13;2.67;;;22.30;96.50;;;;;;5051909;28;20056;-78
2022/06/22 13:10:24;;;;;;;9.45;3.55;;;22.30;97.60;;;;;;5053932;28;20136;-77
2022/06/22 13:13:04;;;;;;;8.68;3.10;;;22.30;97.60;;;;;;5053827;28;20492;-78
2022/06/22 13:15:43;;;;;;;6.65;3.20;;;22.30;98.40;;;;;;5058820;28;20056;-78
2022/06/22 13:18:49;;;;;;;7.35;3.15;;;22.30;98.40;;;;;;5094089;28;20044;-78
2022/06/22 13:21:30;;;;;;;5.97;3.08;;;22.30;95.70;;;;;;5083830;28;20405;-77
2022/06/22 13:24:19;;;;;;;7.97;3.80;;;22.30;97.90;;;;;;5092586;28;20492;-77
2022/06/22 13:27:03;;;;;;;8.00;3.72;;;22.30;97.60;;;;;;5093929;28;20040;-77
2022/06/22 13:30:09;;;;;;;11.37;4.30;;;22.30;98.80;;;;;;5075004;28;20040;-79
2022/06/22 13:32:36;;;;;;;6.40;3.42;;;22.40;99.10;;;;;;5043950;28;20520;-79
2022/06/22 13:35:29;;;;;;;8.18;3.42;;;22.40;99.40;;;;;;5051307;28;20045;-77
2022/06/22 13:38:32;;;;;;;8.13;3.90;;;22.40;99.90;;;;;;5054075;28;20408;-76
2022/06/22 13:41:29;;;;;;;9.18;3.60;;;22.40;99.50;;;;;;5052504;28;20519;-79
2022/06/22 13:44:27;;;;;;;9.85;3.53;;;22.40;99.60;;;;;;5073416;28;20442;-77
2022/06/22 13:47:18;;;;;;;4.72;2.80;;;22.40;99.60;;;;;;5073035;28;20055;-77
2022/06/22 13:50:19;;;;;;;12.13;3.67;;;22.40;98.40;;;;;;5083412;28;20455;-77
2022/06/22 13:52:49;;;;;;;8.43;3.70;;;22.40;98.40;;;;;;5073049;28;20052;-77
2022/06/22 13:55:33;;;;;;;9.90;3.05;;;22.40;99.30;;;;;;5071276;28;20040;-77
2022/06/22 13:58:05;;;;;;;12.15;4.20;;;22.40;99.90;;;;;;5068613;28;20044;-78
2022/06/22 14:01:01;;;;;;;9.18;3.40;;;22.50;99.90;;;;;;5072387;28;20179;-79
2022/06/22 14:03:44;;;;;;;13.80;3.53;;;22.60;99.90;;;;;;5066397;28;20051;-78
2022/06/22 14:06:25;;;;;;;12.35;3.75;;;22.60;99.90;;;;;;5071176;28;20055;-79